Архив погоды в Великих Луках

Метеограмма Великие Луки
Среда, 23 Октября
Время местн. Темп Ветер Видим Явления Облачность нижн/средн/верх Атм. давл. Влжн Точка росы ВНГО R Сост. почвы Tg s
Напр Скр Прв ур.ст ур.м изм
03:00 +11° Ю,Ю-З 2 - 10 км - переменная облачность 754 763 -0.5 87% +9° более 2.5 км - - - -
00:00 +12° З 4 - 10 км - ясно 754 764 0 79% +8.4° более 2.5 км - - - -
Вторник, 22 Октября
Время местн. Темп Ветер Видим Явления Облачность нижн/средн/верх Атм. давл. Влжн Точка росы ВНГО R Сост. почвы Tg s
Напр Скр Прв ур.ст ур.м изм
21:00 +13.1° З,С-З 1 - 10 км - облачно 754 763 +0.2 94% +12.1° 1.5 км 0.3 - - -
18:00 +12.6° Ю-В 1 - 10 км - облачно 754 763 -0.6 95% +11.8° 1.5 км - - - -
15:00 +13° Ю 3 - 10 км облака рассеиваются {ливневые осадки} преимущественно облачно 754 764 -2.5 88% +11.1° 1.5 км - - - -
12:00 +9.3° Ю 3 - 10 км ливневый дождь облачно 757 766 -1.5 100% +9.3° 600 м - - - -
09:00 +2.7° Ю,Ю-В 1 - 4 км дымка облачно 758 768 -0.1 100% +2.7° 200 м 0 Влажная (без луж) - -
06:00 +1.7° штиль 0 - 4 км дымка преимущественно облачно 758 768 -0.2 100% +1.7° 1.5 км - - - -
03:00 +3.1° штиль 0 - 2 км дымка преимущественно облачно 759 768 +0.5 100% +3.1° 1.5 км - - - -
00:00 +3.3° штиль 0 - 4 км дымка преимущественно облачно 758 768 +0.7 100% +3.3° 2 км - - - -
Понедельник, 21 Октября
Время местн. Темп Ветер Видим Явления Облачность нижн/средн/верх Атм. давл. Влжн Точка росы ВНГО R Сост. почвы Tg s
Напр Скр Прв ур.ст ур.м изм
21:00 +6.6° Ю-З 1 - 4 км дымка {ливневые осадки} ясно 757 767 +0.8 100% +6.6° более 2.5 км 0.8 - - -
18:00 +10.4° З 1 - 10 км ливневый дождь облачно 757 766 +0.8 98% +10.1° 1 км - - - -
15:00 +11.3° С,С-З 1 - 4 км слабый ливневый дождь облачно 756 765 +1.5 93% +10.2° 1 км - - - -
12:00 +13.1° С-З 2 - 10 км - облачно 754 764 +1.4 82% +10.1° 1 км - - - -
09:00 +12.1° Ю-З 3 - 10 км - облачно 753 762 +0.2 91% +10.7° более 2.5 км 0 - - -
06:00 +10.6° Ю-З 2 - 10 км - облачно 753 762 -0.3 97% +10.1° более 2.5 км - - - -
03:00 +11.6° Ю,Ю-З 2 - 10 км - облачно 753 763 -0.8 92% +10.3° более 2.5 км - - - -
00:00 +11° Ю 1 - 10 км - облачно 754 763 0 94% +10.1° более 2.5 км - - - -
Воскресенье, 20 Октября
Время местн. Темп Ветер Видим Явления Облачность нижн/средн/верх Атм. давл. Влжн Точка росы ВНГО R Сост. почвы Tg s
Напр Скр Прв ур.ст ур.м изм
21:00 +12.4° Ю,Ю-В 2 - 10 км - облачно 754 763 -0.4 92% +11.1° более 2.5 км 0 - - -
18:00 +12.9° штиль 0 - 10 км - облачно 754 764 -0.2 88% +11° - - - - -
15:00 +18.5° Ю,Ю-З 1 - 10 км - облачно 755 764 -0.2 64% +11.5° - - - - -
12:00 +17.1° Ю 1 - 10 км - облачно 755 764 -0.2 69% +11.3° - - - - -
09:00 +9.5° штиль 0 - 10 км - облачно 755 765 +0.5 100% +9.5° 2 км 0 - - -
06:00 +9.3° штиль 0 - 10 км - облачно 754 764 +0.7 100% +9.3° более 2.5 км - - - -
03:00 +10.1° Ю,Ю-З 1 - 10 км - облачно 754 763 +0.3 97% +9.7° более 2.5 км - - - -
00:00 +11.6° Ю,Ю-З 2 - 10 км - облачно 753 763 +0.4 89% +9.9° более 2.5 км - - - -